Time;durP1;ratioP1;P1;durP2;ratioP2;P2;SDS_P1;SDS_P2;PMS_P1;PMS_P2;Temp;Humidity;BMP_temperature;BMP_pressure;BME280_temperature;BME280_humidity;BME280_pressure;Samples;Min_cycle;Max_cycle;Signal;HPM_P1;HPM_P2
2022/01/07 00:01:40;;;;;;;15.32;3.80;;;;;;;6.02;51.32;101476.97;6153865;22;98825;-78
2022/01/07 00:04:08;;;;;;;13.73;3.60;;;;;;;5.83;51.53;101478.78;6154435;22;96580;-78
2022/01/07 00:06:35;;;;;;;13.80;4.15;;;;;;;5.86;51.23;101479.63;6153004;22;96816;-78
2022/01/07 00:09:02;;;;;;;15.98;4.13;;;;;;;5.90;50.87;101476.16;6153709;22;98804;-78
2022/01/07 00:11:28;;;;;;;15.18;4.03;;;;;;;5.82;51.57;101467.41;6154616;22;98710;-76
2022/01/07 00:13:55;;;;;;;18.90;3.65;;;;;;;5.75;51.36;101473.56;6155033;22;97014;-78
2022/01/07 00:16:21;;;;;;;10.13;3.38;;;;;;;5.63;52.07;101476.22;6153649;22;96806;-78
2022/01/07 00:18:48;;;;;;;17.85;4.05;;;;;;;5.78;51.39;101464.78;6153720;22;100867;-77
2022/01/07 00:21:16;;;;;;;18.05;4.57;;;;;;;5.89;50.92;101470.91;6153397;22;99152;-78
2022/01/07 00:23:42;;;;;;;19.30;5.43;;;;;;;5.73;50.79;101475.31;6154041;22;96979;-78
2022/01/07 00:26:09;;;;;;;15.88;4.70;;;;;;;5.67;51.13;101469.22;6154529;22;96742;-77
2022/01/07 00:28:35;;;;;;;14.68;4.25;;;;;;;5.71;51.02;101470.97;6155649;22;98824;-77
2022/01/07 00:31:02;;;;;;;16.55;4.53;;;;;;;5.58;52.19;101468.38;6170023;22;99167;-78
2022/01/07 00:33:29;;;;;;;19.52;4.15;;;;;;;5.46;52.42;101470.16;6180596;22;96623;-76
2022/01/07 00:35:56;;;;;;;14.45;4.88;;;;;;;5.68;51.56;101471.84;6181730;22;96442;-78
2022/01/07 00:38:34;;;;;;;16.17;4.30;;;;;;;5.72;51.40;101470.94;6169643;22;98103;-78
2022/01/07 00:41:00;;;;;;;19.05;4.55;;;;;;;5.67;50.81;101470.09;6156575;22;98884;-77
2022/01/07 00:43:27;;;;;;;20.45;3.85;;;;;;;5.87;51.60;101467.38;6154711;22;96867;-76
2022/01/07 00:45:53;;;;;;;24.80;5.60;;;;;;;5.75;51.07;101470.06;6155090;22;96891;-76
2022/01/07 00:48:19;;;;;;;15.68;3.83;;;;;;;5.77;50.99;101466.56;6158100;22;98143;-76
2022/01/07 00:50:46;;;;;;;18.98;4.15;;;;;;;5.90;50.78;101464.78;6159700;22;98791;-76
2022/01/07 00:53:13;;;;;;;18.70;4.57;;;;;;;5.89;50.87;101453.41;6155683;22;96895;-77
2022/01/07 00:55:41;;;;;;;15.05;3.90;;;;;;;5.97;50.77;101462.09;6155416;22;96729;-76
2022/01/07 00:58:08;;;;;;;19.85;4.35;;;;;;;6.16;50.07;101455.03;6154323;22;98868;-77
2022/01/07 01:00:34;;;;;;;17.27;4.20;;;;;;;5.96;50.19;101459.50;6155803;22;97984;-78
2022/01/07 01:03:01;;;;;;;26.63;4.07;;;;;;;5.92;50.75;101453.38;6155889;22;97192;-78
2022/01/07 01:05:29;;;;;;;19.80;3.78;;;;;;;5.84;50.10;101452.50;6157216;22;96980;-79
2022/01/07 01:07:55;;;;;;;16.77;4.20;;;;;;;5.61;51.07;101444.78;6164539;22;98867;-78
2022/01/07 01:10:24;;;;;;;19.55;3.75;;;;;;;5.57;51.67;101450.91;6178033;22;97904;-78
2022/01/07 01:12:53;;;;;;;28.27;4.60;;;;;;;5.63;51.79;101452.63;6181185;22;96166;-78
2022/01/07 01:15:22;;;;;;;18.50;4.05;;;;;;;5.62;51.55;101450.88;6180873;22;96394;-78
2022/01/07 01:17:50;;;;;;;20.70;4.00;;;;;;;5.69;51.53;101444.75;6179986;22;98226;-78
2022/01/07 01:20:17;;;;;;;16.80;4.20;;;;;;;5.65;51.59;101437.75;6180772;22;98358;-78
2022/01/07 01:22:44;;;;;;;22.88;3.72;;;;;;;5.71;51.82;101442.97;6181645;22;95774;-76
2022/01/07 01:25:11;;;;;;;16.80;3.75;;;;;;;5.66;51.63;101426.38;6180200;22;95900;-77
2022/01/07 01:27:39;;;;;;;17.98;4.90;;;;;;;5.42;52.06;101442.22;6171256;22;98007;-77
2022/01/07 01:30:10;;;;;;;18.90;4.40;;;;;;;5.41;52.60;101438.72;6160842;22;97701;-76
2022/01/07 01:32:38;;;;;;;12.90;3.67;;;;;;;5.36;52.88;101427.41;6161970;22;96854;-77
2022/01/07 01:35:06;;;;;;;24.05;4.57;;;;;;;5.31;53.20;101430.91;6168774;22;96734;-77
2022/01/07 01:37:33;;;;;;;14.15;3.80;;;;;;;5.40;52.83;101426.50;6164842;22;98807;-77
2022/01/07 01:40:00;;;;;;;30.75;4.75;;;;;;;5.03;53.44;101425.75;6157504;22;101222;-77
2022/01/07 01:42:26;;;;;;;19.95;4.47;;;;;;;5.16;53.65;101422.22;6158976;22;96788;-77
2022/01/07 01:44:53;;;;;;;14.93;4.28;;;;;;;5.06;54.53;101415.22;6156885;22;96763;-77
2022/01/07 01:47:21;;;;;;;22.67;4.78;;;;;;;5.15;53.84;101401.25;6156187;22;99327;-78
2022/01/07 01:49:47;;;;;;;25.27;4.70;;;;;;;5.37;53.13;101404.69;6154179;22;98743;-77
2022/01/07 01:52:14;;;;;;;19.65;4.78;;;;;;;5.13;52.89;101409.09;6153731;22;96652;-77
2022/01/07 01:54:43;;;;;;;21.73;4.78;;;;;;;5.27;53.38;101400.34;6154074;22;97019;-77
2022/01/07 01:57:09;;;;;;;25.55;4.78;;;;;;;5.28;53.94;101402.09;6153000;22;100921;-77
2022/01/07 01:59:36;;;;;;;25.58;5.05;;;;;;;5.00;54.52;101401.28;6156209;22;99540;-78
2022/01/07 02:02:03;;;;;;;24.90;5.60;;;;;;;5.18;53.82;101396.91;6164591;22;96812;-77
2022/01/07 02:04:31;;;;;;;13.95;4.75;;;;;;;5.10;53.88;101396.03;6162059;22;96644;-77
2022/01/07 02:06:57;;;;;;;16.25;4.90;;;;;;;5.48;53.47;101393.28;6159418;22;100730;-77
2022/01/07 02:09:31;;;;;;;16.08;4.85;;;;;;;5.45;53.57;101384.53;6161610;22;99021;-77
2022/01/07 02:11:57;;;;;;;23.00;6.20;;;;;;;5.47;53.34;101385.41;6155386;22;96940;-78
2022/01/07 02:14:24;;;;;;;19.80;5.38;;;;;;;5.40;53.68;101379.31;6153596;22;96902;-78
2022/01/07 02:16:51;;;;;;;19.35;5.00;;;;;;;5.40;53.84;101388.94;6152686;22;97702;-78
2022/01/07 02:19:17;;;;;;;20.73;6.50;;;;;;;5.35;53.14;101373.22;6153068;22;100281;-78
2022/01/07 02:21:45;;;;;;;20.27;5.57;;;;;;;5.21;53.19;101370.66;6154683;22;96974;-79
2022/01/07 02:24:12;;;;;;;19.70;5.43;;;;;;;5.43;53.67;101379.31;6155151;22;97228;-77
2022/01/07 02:26:38;;;;;;;19.98;5.97;;;;;;;5.09;53.82;101378.56;6152401;22;98816;-78
2022/01/07 02:29:05;;;;;;;20.00;5.85;;;;;;;5.16;54.11;101375.06;6154073;22;98796;-78
2022/01/07 02:31:32;;;;;;;22.83;5.78;;;;;;;5.27;53.50;101376.75;6156062;22;96638;-77
2022/01/07 02:33:59;;;;;;;19.38;5.68;;;;;;;5.45;53.41;101367.06;6156842;22;97201;-78
2022/01/07 02:36:25;;;;;;;17.73;5.82;;;;;;;5.33;53.38;101366.25;6156046;22;99662;-78
2022/01/07 02:38:53;;;;;;;23.60;5.95;;;;;;;5.46;52.71;101365.31;6157086;22;101016;-77
2022/01/07 02:41:20;;;;;;;23.67;5.45;;;;;;;5.19;53.47;101359.31;6155517;22;96897;-77
2022/01/07 02:43:46;;;;;;;18.67;5.60;;;;;;;5.40;53.29;101352.22;6155855;22;96734;-78
2022/01/07 02:46:13;;;;;;;29.33;6.40;;;;;;;5.41;53.28;101344.38;6154275;22;99260;-79
2022/01/07 02:48:39;;;;;;;21.70;6.32;;;;;;;5.42;53.39;101345.25;6152918;22;100887;-78
2022/01/07 02:51:06;;;;;;;21.55;6.72;;;;;;;5.45;53.39;101342.59;6153571;22;96781;-79
2022/01/07 02:53:32;;;;;;;20.17;5.90;;;;;;;5.54;52.63;101340.81;6153683;22;97067;-79
2022/01/07 02:56:00;;;;;;;25.20;6.53;;;;;;;5.49;52.81;101344.34;6156137;22;99522;-79
2022/01/07 02:58:27;;;;;;;23.92;6.80;;;;;;;5.33;52.35;101354.00;6175196;22;99187;-78
2022/01/07 03:00:53;;;;;;;23.13;6.47;;;;;;;5.49;52.77;101346.97;6180027;22;95989;-78
2022/01/07 03:03:20;;;;;;;20.52;6.45;;;;;;;5.21;53.14;101338.34;6179831;22;95818;-78
2022/01/07 03:05:46;;;;;;;19.75;6.28;;;;;;;4.92;53.55;101338.47;6163181;22;97257;-77
2022/01/07 03:08:13;;;;;;;21.88;6.97;;;;;;;4.90;54.28;101344.56;6153615;22;98180;-78
2022/01/07 03:10:40;;;;;;;20.85;6.22;;;;;;;5.28;53.38;101341.81;6153869;22;96579;-77
2022/01/07 03:13:09;;;;;;;18.92;6.13;;;;;;;5.25;53.12;101333.97;6157019;22;96602;-78
2022/01/07 03:15:38;;;;;;;19.13;5.57;;;;;;;5.13;52.93;101337.50;6157081;22;99213;-78
2022/01/07 03:18:06;;;;;;;18.25;6.22;;;;;;;5.14;53.67;101334.88;6157897;22;98060;-77
2022/01/07 03:20:37;;;;;;;15.35;5.53;;;;;;;5.12;53.38;101325.31;6159813;22;96600;-78
2022/01/07 03:23:06;;;;;;;17.75;5.35;;;;;;;5.15;53.77;101326.16;6159486;22;96673;-77
2022/01/07 03:25:33;;;;;;;15.32;5.43;;;;;;;5.18;53.09;101318.28;6158677;22;98916;-77
2022/01/07 03:28:00;;;;;;;16.58;5.20;;;;;;;5.16;53.87;101320.03;6157692;22;101392;-77
2022/01/07 03:30:28;;;;;;;23.42;5.82;;;;;;;5.21;53.70;101325.25;6159426;22;97152;-77
2022/01/07 03:32:55;;;;;;;18.52;5.95;;;;;;;5.38;52.60;101320.78;6159144;22;96701;-77
2022/01/07 03:35:21;;;;;;;15.35;5.63;;;;;;;5.05;53.69;101310.50;6158068;22;98193;-77
2022/01/07 03:37:49;;;;;;;14.80;6.07;;;;;;;5.10;53.86;101314.81;6157964;22;98712;-78
2022/01/07 03:40:16;;;;;;;21.33;5.70;;;;;;;5.00;53.69;101318.34;6157286;22;96834;-77
2022/01/07 03:42:44;;;;;;;21.33;5.57;;;;;;;5.01;54.01;101309.63;6157410;22;96726;-77
2022/01/07 03:45:12;;;;;;;21.25;6.32;;;;;;;5.15;53.28;101305.19;6155969;22;99185;-77
2022/01/07 14:09:56;;;;;;;15.07;7.07;;;;;;;7.11;56.32;100806.00;6162560;22;96657;-79
2022/01/07 14:26:22;;;;;;;15.80;6.75;;;;;;;7.49;56.38;100824.47;6039798;22;101231;-78
2022/01/07 14:28:59;;;;;;;11.27;6.20;;;;;;;7.28;56.21;100827.56;6148590;22;97254;-78
2022/01/07 14:31:26;;;;;;;13.30;6.72;;;;;;;7.40;56.83;100824.69;6152780;22;96709;-79
2022/01/07 14:33:59;;;;;;;13.73;6.68;;;;;;;7.47;56.21;100828.91;6150239;22;98747;-78
2022/01/07 14:36:26;;;;;;;14.35;6.82;;;;;;;6.70;58.13;100833.94;6151063;22;100639;-78
2022/01/07 14:39:05;;;;;;;;;;;;;;;;;;;;;
2022/01/07 14:42:05;;;;;;;;;;;;;;;;;;;;;
2022/01/07 14:44:41;;;;;;;14.52;6.25;;;;;;;6.94;58.26;100826.50;6136014;22;128732;-79
2022/01/07 14:47:10;;;;;;;19.42;7.15;;;;;;;6.73;58.37;100822.53;6154343;22;98754;-79
2022/01/07 14:49:44;;;;;;;14.15;6.32;;;;;;;6.70;57.84;100819.94;6157171;22;96971;-79
2022/01/07 14:52:30;;;;;;;;;;;;;;;;;;;;;
2022/01/07 14:55:34;;;;;;;17.25;6.85;;;;;;;7.15;57.75;100819.03;6149926;22;127135;-78
2022/01/07 14:58:33;;;;;;;14.75;7.20;;;;;;;7.41;57.04;100815.91;6029461;23;97770;-79
2022/01/07 15:21:37;;;;;;;;;;;;;;;;;;;;;
2022/01/07 15:24:08;;;;;;;16.85;7.72;;;;;;;7.57;56.91;100824.31;6184833;22;119584;-80
2022/01/07 15:26:59;;;;;;;;;;;;;;;;;;;;;
2022/01/07 15:29:32;;;;;;;17.75;7.25;;;;;;;7.57;57.13;100822.53;6159609;22;128312;-79
2022/01/07 15:32:10;;;;;;;19.60;7.90;;;;;;;7.60;56.62;100822.47;6153594;22;99298;-79
2022/01/07 16:01:15;;;;;;;;;;;;;;;;;;;;;
2022/01/07 16:09:43;;;;;;;18.38;8.30;;;;;;;7.04;58.21;100805.25;6059492;23;98544;-79
2022/01/07 16:12:22;;;;;;;;;;;;;;;;;;;;;
2022/01/07 16:14:59;;;;;;;;;;;;;;;;;;;;;
2022/01/07 16:20:56;;;;;;;14.32;8.45;;;;;;;7.10;57.88;100804.25;5971355;23;99726;-78
2022/01/07 16:23:36;;;;;;;;;;;;;;;;;;;;;
2022/01/07 16:26:10;;;;;;;19.13;9.15;;;;;;;7.37;57.59;100803.69;6140763;22;118646;-78
2022/01/07 16:28:44;;;;;;;19.55;8.88;;;;;;;7.55;56.78;100797.16;6150059;22;98808;-78
2022/01/07 16:31:16;;;;;;;17.00;8.93;;;;;;;7.49;57.07;100794.66;6150790;22;99034;-78
2022/01/07 16:33:59;;;;;;;16.40;9.07;;;;;;;7.39;56.70;100812.44;6150628;22;96624;-79
2022/01/07 16:36:26;;;;;;;13.07;8.63;;;;;;;7.34;57.30;100814.28;6120639;22;97003;-77
2022/01/07 16:38:56;;;;;;;15.50;8.77;;;;;;;7.35;57.50;100809.91;6148794;22;98975;-77
2022/01/07 16:41:26;;;;;;;17.98;8.57;;;;;;;7.53;56.46;100804.25;6150582;22;98880;-77
2022/01/07 16:44:10;;;;;;;18.83;9.52;;;;;;;7.41;56.62;100815.03;6149011;22;96631;-79
2022/01/07 16:46:40;;;;;;;17.05;8.98;;;;;;;7.35;57.47;100800.22;6150169;22;97044;-79
2022/01/07 16:49:13;;;;;;;17.27;9.55;;;;;;;7.59;57.14;100799.72;6149256;22;99478;-79
2022/01/07 16:51:44;;;;;;;17.35;9.80;;;;;;;7.53;56.71;100791.09;6148290;22;101056;-79
2022/01/07 16:54:32;;;;;;;;;;;;;;;;;;;;;
2022/01/07 16:57:02;;;;;;;16.50;9.63;;;;;;;7.22;58.15;100806.63;6141786;22;117227;-77
2022/01/07 16:59:35;;;;;;;18.70;10.10;;;;;;;7.18;57.83;100812.88;6149074;22;99095;-78
2022/01/07 17:02:05;;;;;;;21.27;10.23;;;;;;;7.35;57.52;100807.28;6149709;22;97987;-79
2022/01/07 17:04:37;;;;;;;18.33;9.95;;;;;;;7.37;57.16;100813.34;6149483;22;96649;-77
2022/01/07 17:07:06;;;;;;;19.50;10.13;;;;;;;7.42;57.40;100811.47;6150856;22;97128;-78
2022/01/07 17:09:32;;;;;;;18.92;10.13;;;;;;;7.56;56.44;100817.31;6150052;22;97748;-77
2022/01/07 17:12:14;;;;;;;16.10;9.50;;;;;;;7.42;56.79;100806.22;6148911;22;99091;-78
2022/01/07 17:14:58;;;;;;;17.50;9.02;;;;;;;7.49;56.51;100813.06;6149144;22;96731;-77
2022/01/07 17:17:25;;;;;;;14.68;8.57;;;;;;;7.58;56.44;100811.13;6158106;22;97213;-78
2022/01/07 17:19:53;;;;;;;15.25;8.60;;;;;;;7.58;56.30;100807.63;6158011;22;97907;-78
2022/01/07 17:22:31;;;;;;;;;;;;;;;;;;;;;
2022/01/07 17:25:12;;;;;;;;;;;;;;;;;;;;;
2022/01/07 17:27:46;;;;;;;16.35;8.93;;;;;;;7.68;56.03;100816.19;6144945;22;117089;-78
2022/01/07 17:30:22;;;;;;;;;;;;;;;;;;;;;
2022/01/07 17:33:39;;;;;;;15.40;8.77;;;;;;;7.85;55.99;100811.41;6151914;22;128058;-78
2022/01/07 17:36:12;;;;;;;19.20;9.60;;;;;;;7.55;56.85;100802.41;6052041;23;96844;-78
2022/01/07 17:38:43;;;;;;;17.48;8.98;;;;;;;7.61;57.05;100800.53;6128116;22;96640;-78
2022/01/07 17:41:11;;;;;;;18.80;8.93;;;;;;;7.44;57.17;100799.16;6176574;22;96515;-79
2022/01/07 17:43:41;;;;;;;15.10;9.07;;;;;;;7.43;57.34;100805.31;6177020;22;97606;-78
2022/01/07 17:46:09;;;;;;;16.20;9.23;;;;;;;7.71;56.71;100800.31;6176937;22;96976;-77
2022/01/07 17:48:35;;;;;;;16.52;9.57;;;;;;;7.65;56.49;100793.44;6161196;22;97097;-77
2022/01/07 17:51:05;;;;;;;17.38;8.50;;;;;;;7.52;56.66;100792.84;6151386;22;99146;-78
2022/01/07 17:53:37;;;;;;;18.30;9.48;;;;;;;7.78;55.93;100802.78;6152304;22;98890;-78
2022/01/07 17:56:04;;;;;;;19.08;9.82;;;;;;;7.65;56.35;100803.97;6149690;22;96639;-78
2022/01/07 17:58:40;;;;;;;18.33;8.95;;;;;;;7.66;56.75;100807.47;6156149;22;97081;-78
2022/01/07 18:01:18;;;;;;;;;;;;;;;;;;;;;
2022/01/07 18:03:54;;;;;;;;;;;;;;;;;;;;;
2022/01/07 18:06:23;;;;;;;14.68;8.88;;;;;;;7.69;56.05;100810.00;6149847;22;119698;-78
2022/01/07 18:09:03;;;;;;;16.40;9.32;;;;;;;7.54;56.44;100798.09;6158069;22;97236;-80
2022/01/07 18:11:29;;;;;;;17.15;8.45;;;;;;;7.38;57.36;100801.94;6152491;22;101005;-79
2022/01/07 18:14:35;;;;;;;;;;;;;;;;;;;;;
2022/01/07 18:23:54;;;;;;;16.88;9.50;;;;;;;7.23;58.08;100800.50;5950712;23;99798;-78
2022/01/07 18:26:50;;;;;;;;;;;;;;;;;;;;;
2022/01/07 18:29:32;;;;;;;;;;;;;;;;;;;;;
